Time;durP1;ratioP1;P1;durP2;ratioP2;P2;SDS_P1;SDS_P2;PMS_P1;PMS_P2;Temp;Humidity;BMP_temperature;BMP_pressure;BME280_temperature;BME280_humidity;BME280_pressure;Samples;Min_cycle;Max_cycle;Signal;HPM_P1;HPM_P2
2022/11/16 00:00:59;;;;;;;1.20;0.00;;;;;;;5.81;64.42;102227.59;5020229;28;20052;-72
2022/11/16 00:03:26;;;;;;;0.30;0.10;;;;;;;5.92;64.49;102239.94;5018935;28;20057;-73
2022/11/16 00:05:57;;;;;;;0.10;0.05;;;;;;;5.91;64.54;102233.00;5022091;28;20294;-73
2022/11/16 00:08:24;;;;;;;0.03;0.00;;;;;;;5.89;64.56;102230.41;5018784;28;20046;-73
2022/11/16 00:10:51;;;;;;;0.57;0.00;;;;;;;5.88;64.47;102231.22;5022733;28;20509;-74
2022/11/16 00:13:18;;;;;;;0.88;0.00;;;;;;;5.89;64.69;102235.59;5019838;28;20045;-73
2022/11/16 00:15:54;;;;;;;0.00;0.00;;;;;;;5.89;64.66;102233.00;5018745;28;20042;-73
2022/11/16 00:18:21;;;;;;;0.30;0.00;;;;;;;5.89;64.62;102238.19;5019829;28;20048;-73
2022/11/16 00:20:48;;;;;;;0.10;0.00;;;;;;;5.89;64.68;102227.81;5017118;28;20108;-73
2022/11/16 00:23:17;;;;;;;0.45;0.00;;;;;;;5.91;64.69;102231.28;5018522;28;20120;-72
2022/11/16 00:25:44;;;;;;;1.25;0.00;;;;;;;5.92;64.87;102234.75;5017098;28;20053;-73
2022/11/16 00:28:11;;;;;;;0.32;0.00;;;;;;;5.91;64.87;102228.69;5018444;28;20053;-73
2022/11/16 00:30:38;;;;;;;0.15;0.00;;;;;;;5.90;65.05;102229.53;5019074;28;20060;-72
2022/11/16 00:33:06;;;;;;;0.45;0.00;;;;;;;5.90;64.81;102229.53;5022586;28;20046;-73
2022/11/16 00:35:38;;;;;;;0.10;0.05;;;;;;;5.92;64.97;102235.66;5016368;28;20050;-72
2022/11/16 00:38:05;;;;;;;0.20;0.00;;;;;;;5.94;65.15;102238.31;5015730;28;20058;-72
2022/11/16 00:40:33;;;;;;;0.05;0.00;;;;;;;5.93;64.78;102232.25;5017990;28;20041;-72
2022/11/16 00:43:00;;;;;;;0.35;0.10;;;;;;;5.93;65.30;102232.25;5015861;28;20132;-72
2022/11/16 00:45:27;;;;;;;0.00;0.00;;;;;;;5.86;65.12;102225.09;5016977;28;20502;-72
2022/11/16 00:47:54;;;;;;;0.55;0.40;;;;;;;5.91;65.28;102227.81;5017147;28;20045;-73
2022/11/16 00:50:21;;;;;;;0.00;0.00;;;;;;;5.89;65.46;102230.41;5018777;28;20056;-72
2022/11/16 00:52:47;;;;;;;1.35;0.00;;;;;;;5.88;65.36;102227.75;5018143;28;20042;-72
2022/11/16 00:55:14;;;;;;;0.05;0.00;;;;;;;5.86;64.78;102235.47;5019093;28;20037;-74
2022/11/16 00:57:43;;;;;;;0.32;0.00;;;;;;;5.84;65.12;102237.19;5018550;28;20046;-73
2022/11/16 01:00:11;;;;;;;0.10;0.00;;;;;;;5.83;65.19;102238.91;5019135;28;20042;-73
2022/11/16 01:02:39;;;;;;;0.35;0.00;;;;;;;5.81;64.79;102232.78;5019270;28;20577;-73
2022/11/16 01:05:08;;;;;;;0.00;0.00;;;;;;;5.82;65.19;102233.66;5018425;28;20133;-73
2022/11/16 01:07:35;;;;;;;0.38;0.00;;;;;;;5.82;65.01;102236.25;5023664;28;20669;-72
2022/11/16 01:10:02;;;;;;;0.00;0.00;;;;;;;5.82;65.06;102238.84;5019135;28;20081;-73
2022/11/16 01:12:28;;;;;;;0.45;0.00;;;;;;;5.82;64.85;102236.25;5017018;28;20808;-73
2022/11/16 01:14:57;;;;;;;0.00;0.00;;;;;;;5.79;64.90;102225.81;5017914;28;20081;-72
2022/11/16 01:17:24;;;;;;;0.00;0.00;;;;;;;5.77;65.16;102228.34;5018165;28;20050;-72
2022/11/16 01:19:51;;;;;;;0.00;0.00;;;;;;;5.73;64.79;102218.75;5021882;28;20053;-74
2022/11/16 01:22:18;;;;;;;0.08;0.00;;;;;;;5.75;65.03;102219.69;5019869;28;20124;-73
2022/11/16 01:24:46;;;;;;;0.30;0.00;;;;;;;5.73;65.18;102215.28;5019188;28;20050;-72
2022/11/16 01:27:13;;;;;;;0.30;0.00;;;;;;;5.76;65.32;102216.25;5016053;28;20068;-73
2022/11/16 01:29:40;;;;;;;0.68;0.00;;;;;;;5.77;65.24;102224.88;5016116;28;20074;-73
2022/11/16 01:32:08;;;;;;;0.00;0.00;;;;;;;5.79;64.72;102228.41;5019250;28;20064;-73
2022/11/16 01:34:35;;;;;;;0.00;0.00;;;;;;;5.78;65.11;102222.34;5014990;28;20046;-72
2022/11/16 01:37:02;;;;;;;0.20;0.00;;;;;;;5.81;65.03;102226.72;5015202;28;20054;-73
2022/11/16 01:39:29;;;;;;;0.35;0.00;;;;;;;5.84;65.09;102227.69;5017976;28;20058;-72
2022/11/16 01:41:56;;;;;;;0.00;0.00;;;;;;;5.86;65.16;102230.28;5020685;28;20049;-73
2022/11/16 01:44:58;;;;;;;0.70;0.00;;;;;;;5.87;65.21;102224.28;5012177;28;20157;-72
2022/11/16 01:47:27;;;;;;;0.00;0.00;;;;;;;5.88;65.43;102228.63;5010329;28;20060;-71
2022/11/16 01:49:58;;;;;;;1.75;0.00;;;;;;;5.89;65.69;102224.31;5022028;28;20097;-73
2022/11/16 01:52:29;;;;;;;0.10;0.00;;;;;;;5.89;65.20;102222.63;5021514;28;20057;-73
2022/11/16 01:54:56;;;;;;;0.25;0.10;;;;;;;5.89;65.34;102220.03;5023336;28;20050;-73
2022/11/16 01:57:26;;;;;;;0.00;0.00;;;;;;;5.90;65.39;102219.16;5015157;28;20056;-73
2022/11/16 01:59:57;;;;;;;0.52;0.05;;;;;;;5.91;65.45;102220.03;5016446;28;20391;-73
2022/11/16 02:02:26;;;;;;;0.10;0.00;;;;;;;5.91;65.21;102223.50;5019026;28;20041;-72
2022/11/16 02:04:54;;;;;;;0.10;0.00;;;;;;;5.82;65.51;102205.13;5020672;28;20053;-72
2022/11/16 02:09:52;;;;;;;0.20;0.00;;;;;;;5.92;65.43;102214.00;5017303;28;20376;-73
2022/11/16 02:10:34;;;;;;;1.85;0.00;;;;;;;5.93;65.19;102210.59;5022492;28;20400;-73
2022/11/16 02:13:13;;;;;;;1.17;0.00;;;;;;;5.96;65.45;102216.75;5025236;28;20046;-73
2022/11/16 02:15:45;;;;;;;0.10;0.10;;;;;;;5.95;65.27;102219.28;5027261;28;20041;-73
2022/11/16 02:18:24;;;;;;;0.10;0.05;;;;;;;5.96;65.32;102221.94;5021889;28;20048;-73
2022/11/16 02:21:25;;;;;;;0.00;0.00;;;;;;;5.96;65.22;102216.75;5020347;28;20529;-72
2022/11/16 02:24:18;;;;;;;0.00;0.00;;;;;;;5.95;65.12;102219.28;5011005;28;20045;-73
2022/11/16 02:27:07;;;;;;;0.73;0.00;;;;;;;5.90;65.21;102211.38;5022360;28;20124;-73
2022/11/16 02:29:40;;;;;;;0.10;0.00;;;;;;;5.88;65.02;102210.47;5019066;28;20511;-72
2022/11/16 02:32:13;;;;;;;0.10;0.00;;;;;;;5.88;65.19;102212.19;5018596;28;20061;-73
2022/11/16 02:34:45;;;;;;;1.10;0.00;;;;;;;5.86;65.40;102201.75;5023366;28;20045;-73
2022/11/16 02:37:16;;;;;;;0.90;0.00;;;;;;;5.86;65.50;102212.13;5020140;28;20041;-72
2022/11/16 02:39:46;;;;;;;1.08;0.10;;;;;;;5.84;65.21;102211.25;5021975;28;20132;-73
2022/11/16 02:42:21;;;;;;;0.10;0.10;;;;;;;5.82;65.33;102211.19;5018736;28;20045;-72
2022/11/16 02:44:52;;;;;;;0.57;0.10;;;;;;;5.83;65.03;102209.47;5022297;28;20060;-73
2022/11/16 02:47:24;;;;;;;0.05;0.00;;;;;;;5.80;65.08;102207.69;5013860;28;20045;-73
2022/11/16 02:49:58;;;;;;;0.75;0.00;;;;;;;5.80;64.65;102199.03;5013663;28;20041;-73
2022/11/16 02:52:26;;;;;;;0.00;0.00;;;;;;;5.79;65.12;102205.94;5019405;28;20057;-72
2022/11/16 02:54:53;;;;;;;0.43;0.00;;;;;;;5.75;65.53;102192.84;5017626;28;20060;-75
2022/11/16 02:57:39;;;;;;;0.55;0.00;;;;;;;5.80;65.21;102197.31;5020946;28;20052;-72
2022/11/16 03:00:10;;;;;;;2.63;0.00;;;;;;;5.82;65.26;102205.13;5019183;28;20418;-72
2022/11/16 03:02:48;;;;;;;0.10;0.00;;;;;;;5.82;65.21;102207.72;5018342;28;20046;-73
2022/11/16 03:05:19;;;;;;;1.15;0.00;;;;;;;5.82;65.07;102205.13;5019810;28;20049;-73
2022/11/16 03:07:50;;;;;;;0.00;0.00;;;;;;;5.81;65.02;102206.88;5017843;28;20057;-73
2022/11/16 03:13:02;;;;;;;0.00;0.00;;;;;;;5.80;65.42;102199.03;5018647;28;20057;-73
2022/11/16 03:15:31;;;;;;;0.05;0.00;;;;;;;5.78;65.66;102195.53;5019496;28;20054;-73
2022/11/16 03:18:00;;;;;;;0.00;0.00;;;;;;;5.78;65.30;102193.81;5014530;28;20045;-72
2022/11/16 03:20:32;;;;;;;0.95;0.82;;;;;;;5.79;65.35;102192.09;5020023;28;20085;-71
2022/11/16 03:23:01;;;;;;;0.40;0.00;;;;;;;5.66;65.27;102164.13;5018545;28;20057;-72
2022/11/16 03:25:32;;;;;;;0.43;0.00;;;;;;;5.79;65.16;102192.09;5020230;28;20517;-72
2022/11/16 03:28:07;;;;;;;1.08;0.00;;;;;;;5.79;65.20;102185.19;5020742;28;20053;-72
2022/11/16 03:30:40;;;;;;;0.63;0.00;;;;;;;5.79;65.25;102189.50;5020338;28;20491;-72
2022/11/16 03:33:16;;;;;;;0.17;0.05;;;;;;;5.76;64.92;102177.34;5022330;28;20049;-72
2022/11/16 03:35:52;;;;;;;0.00;0.00;;;;;;;5.76;64.70;102189.44;5019111;28;20145;-71
2022/11/16 03:38:22;;;;;;;0.10;0.00;;;;;;;5.75;65.08;102183.38;5021697;28;20053;-73
2022/11/16 03:40:50;;;;;;;0.15;0.05;;;;;;;5.74;64.92;102183.34;5017648;28;20058;-73
2022/11/16 03:43:20;;;;;;;0.00;0.00;;;;;;;5.74;64.94;102180.75;5016643;28;20045;-74
2022/11/16 03:45:48;;;;;;;0.03;0.00;;;;;;;5.74;65.23;102176.44;5022923;28;20053;-72
2022/11/16 03:48:15;;;;;;;0.85;0.10;;;;;;;5.73;64.87;102171.22;5021632;28;20057;-72
2022/11/16 03:50:43;;;;;;;0.03;0.00;;;;;;;5.66;64.97;102162.41;5019707;28;20046;-72
2022/11/16 03:53:10;;;;;;;0.00;0.00;;;;;;;5.73;64.68;102179.00;5018608;28;20057;-72
2022/11/16 03:55:37;;;;;;;1.08;0.00;;;;;;;5.74;64.99;102183.34;5017858;28;20044;-73
2022/11/16 03:58:05;;;;;;;0.20;0.00;;;;;;;5.76;64.91;102181.66;5015533;28;20041;-73
2022/11/16 04:00:32;;;;;;;1.38;0.00;;;;;;;5.75;64.91;102178.19;5014096;28;20049;-72
2022/11/16 04:03:00;;;;;;;0.10;0.00;;;;;;;5.74;64.91;102179.03;5020623;28;20057;-73
2022/11/16 04:25:02;;;;;;;1.17;0.00;;;;;;;5.69;64.57;102179.75;5005724;28;20052;-73
2022/11/16 04:30:15;;;;;;;0.75;0.00;;;;;;;5.69;64.43;102179.75;5018863;28;20103;-73
2022/11/16 04:38:12;;;;;;;0.20;0.10;;;;;;;5.68;64.33;102165.03;5018829;28;20115;-73
2022/11/16 04:40:39;;;;;;;0.20;0.20;;;;;;;5.69;64.42;102172.84;5016796;28;20053;-73
2022/11/16 04:43:06;;;;;;;0.30;0.00;;;;;;;5.63;64.30;102159.75;5018483;28;20483;-73
2022/11/16 04:48:19;;;;;;;0.28;0.00;;;;;;;5.66;63.91;102167.59;5014211;28;20647;-72
2022/11/16 04:50:47;;;;;;;0.03;0.00;;;;;;;5.66;64.03;102159.81;5017288;28;20064;-73
2022/11/16 04:53:15;;;;;;;0.00;0.00;;;;;;;5.68;64.06;102157.25;5020640;28;20447;-73
2022/11/16 04:55:42;;;;;;;0.00;0.00;;;;;;;5.67;63.98;102161.56;5015302;28;20690;-73
2022/11/16 04:58:09;;;;;;;2.55;1.20;;;;;;;5.67;63.91;102152.94;5017991;28;20443;-72
2022/11/16 05:00:36;;;;;;;0.00;0.00;;;;;;;5.63;63.94;102155.44;5021880;28;20041;-73
2022/11/16 05:03:04;;;;;;;0.15;0.00;;;;;;;5.63;64.08;102150.28;5021637;28;20517;-72
2022/11/16 05:05:31;;;;;;;0.82;0.10;;;;;;;5.63;64.01;102150.28;5017891;28;20061;-73
2022/11/16 05:07:59;;;;;;;0.00;0.00;;;;;;;5.64;64.04;102152.00;5013398;28;20057;-72
2022/11/16 05:10:26;;;;;;;0.57;0.08;;;;;;;5.64;64.15;102153.72;5024659;28;20049;-73
2022/11/16 05:12:53;;;;;;;0.30;0.00;;;;;;;5.63;64.02;102155.44;5021679;28;20056;-73
2022/11/16 05:15:20;;;;;;;0.10;0.00;;;;;;;5.63;64.05;102150.28;5018049;28;20056;-73
2022/11/16 05:17:47;;;;;;;0.28;0.00;;;;;;;5.62;64.21;102153.69;5018161;28;20066;-73
2022/11/16 05:22:59;;;;;;;0.10;0.00;;;;;;;5.61;64.14;102146.75;5025778;28;20228;-73
2022/11/16 05:25:27;;;;;;;1.38;0.00;;;;;;;5.62;63.85;102153.69;5022324;28;20121;-72
2022/11/16 05:27:54;;;;;;;0.75;0.00;;;;;;;5.62;63.77;102160.59;5026345;28;20042;-72
2022/11/16 05:30:21;;;;;;;0.38;0.00;;;;;;;5.61;63.65;102151.06;5019367;28;20045;-73
2022/11/16 05:32:47;;;;;;;0.08;0.05;;;;;;;5.60;63.57;102157.06;5018195;28;20121;-72
2022/11/16 05:35:14;;;;;;;0.43;0.10;;;;;;;5.59;63.45;102156.19;5015633;28;20056;-73
2022/11/16 05:37:41;;;;;;;1.10;0.00;;;;;;;5.59;63.93;102169.16;5015351;28;20104;-72
2022/11/16 05:40:11;;;;;;;0.90;0.00;;;;;;;5.60;63.72;102162.25;5016977;28;20438;-73
2022/11/16 05:42:38;;;;;;;0.10;0.00;;;;;;;5.59;63.57;102168.28;5019183;28;20060;-73
2022/11/16 05:45:06;;;;;;;0.10;0.00;;;;;;;5.59;63.91;102157.91;5019620;28;20042;-73
2022/11/16 05:47:33;;;;;;;0.10;0.00;;;;;;;5.59;63.86;102163.09;5026093;28;20045;-72
2022/11/16 05:50:00;;;;;;;0.17;0.15;;;;;;;5.57;63.56;102159.59;5022704;28;20045;-74
2022/11/16 05:52:27;;;;;;;0.28;0.00;;;;;;;5.59;63.70;102158.78;5021459;28;20125;-72
2022/11/16 05:54:54;;;;;;;0.00;0.00;;;;;;;5.59;63.84;102158.78;5020376;28;20038;-72
2022/11/16 05:57:22;;;;;;;0.03;0.00;;;;;;;5.60;63.76;102157.06;5021377;28;20049;-73
2022/11/16 05:59:49;;;;;;;0.10;0.00;;;;;;;5.54;63.74;102146.56;5023994;28;20042;-73
2022/11/16 06:02:16;;;;;;;0.00;0.00;;;;;;;5.61;63.13;102153.66;5022445;28;20049;-72
2022/11/16 06:04:42;;;;;;;0.08;0.00;;;;;;;5.61;63.27;102157.13;5021672;28;20050;-72
2022/11/16 06:07:09;;;;;;;0.00;0.00;;;;;;;5.57;63.69;102150.09;5017161;28;20045;-72
2022/11/16 06:09:36;;;;;;;0.10;0.00;;;;;;;5.60;63.33;102163.13;5016398;28;20038;-73
2022/11/16 06:12:04;;;;;;;0.00;0.00;;;;;;;5.61;63.63;102171.81;5019732;28;20111;-72
2022/11/16 06:14:32;;;;;;;0.05;0.00;;;;;;;5.61;63.55;102167.50;5016328;28;20065;-72
2022/11/16 06:16:59;;;;;;;0.00;0.00;;;;;;;5.62;63.29;102169.22;5021389;28;20057;-73
2022/11/16 06:19:26;;;;;;;0.00;0.00;;;;;;;5.64;63.58;102172.75;5020170;28;20042;-71
2022/11/16 06:21:52;;;;;;;0.03;0.00;;;;;;;5.64;63.26;102172.75;5020564;28;20506;-72
2022/11/16 06:24:19;;;;;;;0.03;0.00;;;;;;;5.66;63.01;102174.50;5018901;28;20132;-72
2022/11/16 06:26:46;;;;;;;0.00;0.00;;;;;;;5.64;63.46;102175.34;5020907;28;20041;-72
2022/11/16 06:29:14;;;;;;;0.28;0.00;;;;;;;5.62;63.46;102169.22;5015496;28;20049;-73
2022/11/16 06:31:43;;;;;;;0.10;0.00;;;;;;;5.66;63.23;102177.09;5019639;28;20046;-72
2022/11/16 06:34:10;;;;;;;1.40;0.00;;;;;;;5.64;63.58;102182.25;5023292;28;20494;-72
2022/11/16 06:36:36;;;;;;;1.92;0.00;;;;;;;5.64;63.20;102187.44;5017546;28;20131;-72
2022/11/16 06:39:03;;;;;;;1.08;0.00;;;;;;;5.60;62.71;102180.41;5014904;28;20060;-72
2022/11/16 06:41:31;;;;;;;0.20;0.10;;;;;;;5.62;62.96;102179.59;5018258;28;20487;-73
2022/11/16 06:43:57;;;;;;;0.10;0.05;;;;;;;5.62;62.72;102186.50;5016022;28;20740;-72
2022/11/16 06:46:24;;;;;;;0.10;0.00;;;;;;;5.60;63.17;102180.41;5025790;28;20053;-72
2022/11/16 06:48:53;;;;;;;0.10;0.00;;;;;;;5.60;62.73;102191.63;5020960;28;20525;-71
2022/11/16 06:51:20;;;;;;;2.55;0.08;;;;;;;5.60;62.34;102189.06;5017806;28;20057;-71
2022/11/16 06:53:46;;;;;;;0.20;0.00;;;;;;;5.59;62.54;102195.09;5017272;28;20136;-70
2022/11/16 06:56:16;;;;;;;0.20;0.20;;;;;;;5.57;62.32;102188.09;5022078;28;20049;-72
2022/11/16 06:58:43;;;;;;;0.00;0.00;;;;;;;5.55;62.91;102188.09;5019527;28;20194;-71
2022/11/16 07:01:11;;;;;;;0.32;0.00;;;;;;;5.44;62.43;102163.63;5018074;28;20125;-70
2022/11/16 07:03:41;;;;;;;0.10;0.00;;;;;;;5.53;62.82;102174.19;5019175;28;20375;-71
2022/11/16 07:06:11;;;;;;;0.00;0.00;;;;;;;5.52;62.35;102166.38;5019277;28;20053;-70
2022/11/16 07:08:39;;;;;;;0.10;0.00;;;;;;;5.54;62.56;102159.53;5020434;28;20069;-70
2022/11/16 07:11:07;;;;;;;0.00;0.00;;;;;;;5.54;62.87;102155.19;5021620;28;20049;-72
2022/11/16 07:13:35;;;;;;;0.28;0.10;;;;;;;5.55;63.00;102164.75;5020044;28;20053;-70
2022/11/16 07:16:03;;;;;;;0.03;0.00;;;;;;;5.57;63.02;102160.47;5015994;28;20055;-71
2022/11/16 07:18:32;;;;;;;0.63;0.10;;;;;;;5.57;63.02;102159.59;5022356;28;20050;-70
2022/11/16 07:20:59;;;;;;;0.17;0.10;;;;;;;5.59;62.84;102156.19;5019281;28;20690;-71
2022/11/16 07:23:31;;;;;;;0.00;0.00;;;;;;;5.57;62.71;102150.09;5023296;28;20406;-70
2022/11/16 07:26:00;;;;;;;0.08;0.00;;;;;;;5.59;63.00;102139.78;5014911;28;20042;-70
2022/11/16 07:28:29;;;;;;;0.47;0.08;;;;;;;5.64;62.80;102148.53;5018890;28;20052;-70
2022/11/16 07:31:00;;;;;;;0.00;0.00;;;;;;;5.66;62.89;102153.75;5018422;28;20083;-70
2022/11/16 07:33:27;;;;;;;0.50;0.00;;;;;;;5.61;62.88;102143.28;5017709;28;20064;-70
2022/11/16 07:35:54;;;;;;;0.68;0.10;;;;;;;5.66;62.98;102153.75;5017895;28;20501;-70
2022/11/16 07:38:21;;;;;;;0.00;0.00;;;;;;;5.68;62.66;102152.94;5022848;28;20525;-71
2022/11/16 07:40:49;;;;;;;1.95;0.10;;;;;;;5.68;63.05;102158.13;5020694;28;20045;-70
2022/11/16 07:43:16;;;;;;;0.00;0.00;;;;;;;5.67;62.99;102158.13;5016821;28;20085;-70
2022/11/16 07:45:43;;;;;;;0.10;0.10;;;;;;;5.67;62.74;102160.72;5017858;28;20046;-70
2022/11/16 07:48:10;;;;;;;1.55;0.10;;;;;;;5.66;62.85;102165.00;5016095;28;20045;-71
2022/11/16 07:50:36;;;;;;;0.00;0.00;;;;;;;5.66;62.56;102165.00;5017727;28;20049;-70
2022/11/16 07:53:03;;;;;;;0.00;0.00;;;;;;;5.64;62.20;102167.56;5014961;28;20691;-71
2022/11/16 07:55:32;;;;;;;0.00;0.00;;;;;;;5.63;62.57;102158.03;5015423;28;20411;-71
2022/11/16 07:58:00;;;;;;;0.00;0.00;;;;;;;5.64;62.37;102171.88;5018676;28;20057;-70
2022/11/16 08:00:27;;;;;;;0.43;0.00;;;;;;;5.63;62.44;102165.81;5023791;28;20128;-71
2022/11/16 08:02:55;;;;;;;0.80;0.00;;;;;;;5.62;62.10;102169.22;5021519;28;20049;-70
2022/11/16 08:05:22;;;;;;;0.10;0.00;;;;;;;5.62;62.27;102170.97;5019659;28;20054;-70
2022/11/16 08:07:49;;;;;;;0.00;0.00;;;;;;;5.62;62.19;102169.22;5017386;28;20045;-71
2022/11/16 08:10:16;;;;;;;0.30;0.00;;;;;;;5.63;62.42;102164.91;5018457;28;20044;-70
2022/11/16 08:12:43;;;;;;;0.10;0.00;;;;;;;5.64;62.52;102167.56;5018537;28;20660;-71
2022/11/16 08:15:12;;;;;;;0.20;0.00;;;;;;;5.66;62.09;102164.13;5022159;28;20045;-71
2022/11/16 08:17:39;;;;;;;0.25;0.00;;;;;;;5.66;62.21;102169.31;5018299;28;20138;-70
2022/11/16 08:20:08;;;;;;;0.00;0.00;;;;;;;5.66;61.69;102164.13;5019013;28;20045;-71
2022/11/16 08:22:35;;;;;;;1.15;0.10;;;;;;;5.66;62.21;102164.13;5018046;28;20132;-70
2022/11/16 08:25:02;;;;;;;0.10;0.10;;;;;;;5.67;62.30;102163.31;5018438;28;20065;-70
2022/11/16 08:27:29;;;;;;;1.13;0.10;;;;;;;5.64;62.29;102162.38;5017650;28;20071;-69
2022/11/16 08:29:56;;;;;;;0.20;0.20;;;;;;;5.70;62.42;102160.78;5018009;28;20049;-70
2022/11/16 08:32:24;;;;;;;0.10;0.10;;;;;;;5.63;62.47;102142.50;5018198;28;20412;-71
2022/11/16 08:34:51;;;;;;;0.88;0.20;;;;;;;5.71;62.72;102157.34;5016672;28;20053;-71
2022/11/16 08:37:19;;;;;;;0.10;0.05;;;;;;;5.71;62.68;102155.63;5015089;28;20521;-71
2022/11/16 08:39:46;;;;;;;0.40;0.20;;;;;;;5.73;62.69;102153.94;5020564;28;20131;-70
2022/11/16 08:42:13;;;;;;;0.65;0.13;;;;;;;5.71;62.92;102157.34;5020078;28;20052;-70
2022/11/16 08:44:40;;;;;;;0.93;0.10;;;;;;;5.74;62.92;102167.78;5021360;28;20069;-71
2022/11/16 08:47:06;;;;;;;0.10;0.10;;;;;;;5.76;63.13;102166.09;5017284;28;20070;-70
2022/11/16 08:49:35;;;;;;;0.38;0.15;;;;;;;5.76;62.57;102155.72;5018394;28;20050;-70
2022/11/16 08:52:02;;;;;;;0.47;0.20;;;;;;;5.77;63.00;102166.13;5017003;28;20054;-71
2022/11/16 08:54:29;;;;;;;0.10;0.10;;;;;;;5.78;62.93;102170.50;5017521;28;20054;-70
2022/11/16 08:56:56;;;;;;;0.20;0.10;;;;;;;5.78;62.67;102174.81;5021833;28;20112;-70
2022/11/16 08:59:23;;;;;;;0.30;0.20;;;;;;;5.76;63.00;102177.34;5025960;28;20041;-70
2022/11/16 09:01:50;;;;;;;1.08;0.20;;;;;;;5.76;62.57;102184.25;5027772;28;20041;-71
2022/11/16 09:04:17;;;;;;;0.25;0.10;;;;;;;5.76;62.84;102171.28;5025588;28;20045;-70
2022/11/16 09:06:46;;;;;;;0.10;0.00;;;;;;;5.78;62.77;102180.88;5019150;28;20042;-70
2022/11/16 09:09:13;;;;;;;0.73;0.20;;;;;;;5.78;62.30;102185.19;5020956;28;20416;-70
2022/11/16 09:11:39;;;;;;;0.15;0.10;;;;;;;5.77;62.68;102186.00;5020101;28;20049;-70
2022/11/16 09:14:06;;;;;;;0.73;0.10;;;;;;;5.77;62.93;102183.41;5023709;28;20064;-71
2022/11/16 09:16:33;;;;;;;0.28;0.20;;;;;;;5.77;62.98;102188.59;5024781;28;20046;-69
2022/11/16 09:19:01;;;;;;;0.20;0.10;;;;;;;5.76;62.55;102184.25;5021570;28;20052;-71
2022/11/16 09:21:30;;;;;;;0.10;0.10;;;;;;;5.79;62.82;102194.69;5024046;28;20501;-70
2022/11/16 09:23:58;;;;;;;0.20;0.10;;;;;;;5.77;62.88;102196.38;5018817;28;20037;-71
2022/11/16 09:26:26;;;;;;;0.95;0.10;;;;;;;5.73;62.92;102198.03;5022719;28;20060;-72
2022/11/16 09:28:57;;;;;;;0.20;0.10;;;;;;;5.76;62.60;102192.03;5022341;28;20041;-71
2022/11/16 09:31:28;;;;;;;0.95;0.20;;;;;;;5.73;62.67;102186.78;5024954;28;20056;-71
2022/11/16 09:33:57;;;;;;;0.10;0.10;;;;;;;5.74;62.57;102189.38;5018742;28;20056;-75
2022/11/16 09:36:24;;;;;;;0.10;0.10;;;;;;;5.74;62.69;102193.69;5024357;28;20056;-71
2022/11/16 09:38:53;;;;;;;2.83;0.10;;;;;;;5.64;62.52;102182.25;5021157;28;20054;-72
2022/11/16 09:41:34;;;;;;;0.75;0.20;;;;;;;5.70;62.73;102192.75;5022180;28;20061;-73
2022/11/16 09:44:11;;;;;;;0.10;0.10;;;;;;;5.72;62.32;102190.19;5023749;28;20052;-72
2022/11/16 09:46:43;;;;;;;0.10;0.10;;;;;;;5.71;62.43;102194.50;5022154;28;20042;-72
2022/11/16 09:49:14;;;;;;;0.40;0.20;;;;;;;5.69;62.41;102191.00;5022821;28;20049;-72
2022/11/16 09:51:45;;;;;;;3.20;0.10;;;;;;;5.70;62.35;102197.06;5022045;28;20050;-72
2022/11/16 09:54:16;;;;;;;0.10;0.05;;;;;;;5.66;61.85;102184.84;5017289;28;20481;-72
2022/11/16 09:56:49;;;;;;;2.05;0.10;;;;;;;5.66;62.13;102183.13;5022145;28;20144;-71
2022/11/16 09:59:22;;;;;;;0.13;0.10;;;;;;;5.71;61.89;102188.44;5021109;28;20053;-72
2022/11/16 10:01:54;;;;;;;4.25;0.20;;;;;;;5.71;61.95;102183.25;5020716;28;20073;-71
2022/11/16 10:04:35;;;;;;;0.10;0.10;;;;;;;5.72;62.00;102182.41;5020781;28;20079;-72
2022/11/16 10:07:08;;;;;;;0.10;0.10;;;;;;;5.72;61.91;102193.69;5021390;28;20140;-71
2022/11/16 10:09:36;;;;;;;0.10;0.10;;;;;;;5.74;62.06;102191.09;5021320;28;20419;-70
2022/11/16 10:12:16;;;;;;;0.32;0.20;;;;;;;5.74;61.76;102183.34;5021458;28;20053;-71
2022/11/16 10:15:05;;;;;;;1.45;0.10;;;;;;;5.76;61.87;102192.91;5019591;28;20049;-71
2022/11/16 10:17:47;;;;;;;0.40;0.20;;;;;;;5.75;61.86;102180.78;5020085;28;20123;-71
2022/11/16 10:20:42;;;;;;;0.50;0.20;;;;;;;5.76;61.98;102186.84;5021528;28;20041;-71
2022/11/16 10:23:21;;;;;;;0.10;0.10;;;;;;;5.77;61.70;102188.59;5021164;28;20042;-71
2022/11/16 10:25:56;;;;;;;0.55;0.10;;;;;;;5.76;62.06;102192.03;5019796;28;20119;-71
2022/11/16 10:28:52;;;;;;;0.35;0.13;;;;;;;5.78;61.88;102195.53;5023764;28;20091;-69
2022/11/16 10:31:28;;;;;;;3.30;0.20;;;;;;;5.80;61.57;102193.84;5015281;28;20049;-72
2022/11/16 10:33:57;;;;;;;0.50;0.50;;;;;;;5.78;61.70;102187.78;5016099;28;20065;-72
2022/11/16 10:36:26;;;;;;;0.20;0.20;;;;;;;5.77;61.73;102196.38;5022642;28;20120;-72
2022/11/16 10:38:56;;;;;;;0.98;0.20;;;;;;;5.79;61.56;102189.50;5022703;28;20081;-72
2022/11/16 10:41:31;;;;;;;0.22;0.10;;;;;;;5.79;61.56;102194.69;5019419;28;20060;-73
2022/11/16 10:44:00;;;;;;;1.67;0.20;;;;;;;5.78;61.60;102190.38;5023376;28;20059;-71
2022/11/16 10:46:32;;;;;;;1.35;0.25;;;;;;;5.80;61.54;102191.25;5020072;28;20049;-71
2022/11/16 10:49:10;;;;;;;0.20;0.20;;;;;;;5.80;61.66;102186.06;5021203;28;20038;-71
2022/11/16 10:51:37;;;;;;;0.30;0.30;;;;;;;5.80;61.61;102188.66;5015382;28;20045;-71
2022/11/16 10:54:12;;;;;;;0.30;0.20;;;;;;;5.81;61.79;102190.44;5018124;28;20061;-72
2022/11/16 10:56:41;;;;;;;0.38;0.20;;;;;;;5.80;61.59;102192.13;5011081;28;20056;-71
2022/11/16 10:59:11;;;;;;;0.20;0.20;;;;;;;5.81;61.73;102190.44;5014964;28;20058;-71
2022/11/16 11:01:42;;;;;;;0.17;0.17;;;;;;;5.76;61.74;102181.66;5018030;28;20054;-72
2022/11/16 11:04:20;;;;;;;0.60;0.30;;;;;;;5.80;61.41;102189.53;5017822;28;20054;-72
2022/11/16 11:06:50;;;;;;;0.40;0.30;;;;;;;5.77;61.61;102188.59;5017919;28;20041;-70
2022/11/16 11:09:29;;;;;;;0.50;0.30;;;;;;;5.78;61.78;102192.97;5018963;28;20061;-71
2022/11/16 11:15:03;;;;;;;0.50;0.40;;;;;;;5.79;61.75;102185.19;5021952;28;20210;-71
2022/11/16 11:17:31;;;;;;;0.40;0.40;;;;;;;5.79;61.38;102192.09;5017161;28;20491;-71
2022/11/16 11:19:59;;;;;;;0.40;0.40;;;;;;;5.77;61.52;102189.47;5018192;28;20505;-72
2022/11/16 11:22:27;;;;;;;0.35;0.32;;;;;;;5.76;61.26;102184.25;5019825;28;20089;-72
2022/11/16 11:24:54;;;;;;;0.47;0.40;;;;;;;5.75;61.52;102180.78;5020223;28;20049;-72
2022/11/16 11:27:24;;;;;;;0.35;0.30;;;;;;;5.72;61.68;102175.53;5022000;28;20042;-73
2022/11/16 11:29:54;;;;;;;0.30;0.30;;;;;;;5.76;61.36;102176.47;5019375;28;20060;-71
2022/11/16 11:32:31;;;;;;;0.50;0.35;;;;;;;5.76;61.40;102168.69;5017704;28;20050;-71
2022/11/16 11:35:00;;;;;;;0.40;0.40;;;;;;;5.75;61.35;102169.50;5015140;28;20057;-72
2022/11/16 11:37:30;;;;;;;0.90;0.45;;;;;;;5.75;61.33;102173.00;5023808;28;20050;-73
2022/11/16 11:40:22;;;;;;;1.10;0.40;;;;;;;5.77;61.17;102165.25;5018699;28;20077;-72
2022/11/16 11:42:58;;;;;;;0.40;0.35;;;;;;;5.74;60.68;102167.78;5011464;28;20042;-72
2022/11/16 11:45:28;;;;;;;;;;;;;;;5.77;61.52;102173.03;5022745;28;20073;-72
2022/11/16 11:48:01;;;;;;;0.50;0.40;;;;;;;5.76;60.97;102171.28;5021649;28;19921;-73
2022/11/16 11:50:40;;;;;;;1.02;0.30;;;;;;;5.76;61.00;102171.28;5019310;28;20545;-71
2022/11/16 11:53:14;;;;;;;0.20;0.20;;;;;;;5.75;61.13;102170.41;5018509;28;20058;-72
2022/11/16 11:55:41;;;;;;;0.17;0.17;;;;;;;5.74;61.17;102168.66;5020342;28;20050;-72
2022/11/16 11:58:16;;;;;;;0.17;0.17;;;;;;;5.73;61.11;102172.09;5017439;28;20048;-72
2022/11/16 12:00:54;;;;;;;1.75;0.30;;;;;;;5.72;61.13;102169.44;5024786;28;20076;-72
2022/11/16 12:03:50;;;;;;;0.50;0.32;;;;;;;5.71;61.10;102167.72;5019200;28;20053;-72
2022/11/16 12:06:29;;;;;;;1.75;0.40;;;;;;;5.70;60.93;102160.78;5016550;28;20049;-72
2022/11/16 12:09:16;;;;;;;1.70;0.55;;;;;;;5.70;61.03;102150.41;5020233;28;20053;-73
2022/11/16 12:11:56;;;;;;;0.40;0.30;;;;;;;5.70;61.08;102156.47;5017867;28;20489;-71
2022/11/16 12:14:38;;;;;;;0.30;0.30;;;;;;;5.72;61.05;102146.13;5018034;28;20497;-71
2022/11/16 12:17:12;;;;;;;0.40;0.32;;;;;;;5.73;61.16;102145.28;5019046;28;20056;-71
2022/11/16 12:20:21;;;;;;;0.47;0.40;;;;;;;5.76;60.91;102150.53;5017396;28;20046;-74
2022/11/16 12:23:12;;;;;;;1.23;1.02;;;;;;;5.72;61.00;102147.00;5017869;28;20512;-73
2022/11/16 12:25:50;;;;;;;0.20;0.20;;;;;;;5.75;61.05;102152.28;5020132;28;20060;-71
2022/11/16 12:28:38;;;;;;;0.30;0.30;;;;;;;5.75;60.90;102154.88;5019675;28;20492;-72